aviador You're here:

KBNO Decoded Metar

BURNS in OR, USA
Report Time2017-12-15 22:53:00
UTC Time2017-12-15 23:30:52
Flight Rules vfr VFR
Wind220° at 04 kt
W.Decomp.*RWY 21: 4.0 kt HW 0.6 kt LCW
RWY 12: 0.6 kt HW 4.0 kt RCW
W.Rank220° ranks 9
Current wind is below 220° avg. (8.1)
Visibility9999 m
Phenomena:N/A
Clouds:Few 007 Hf
Scattered 060 Hf
Expected CloudBase > 800 ft AGL from Temp-Dew spread
CeilingNone
Temp-4°C (ISA -11)
Dew Point-6°C (86% RH)
AAT-8.2°C
QNH1020 hPa
Density Alt2,664 ft
Elevation4,147 ft
Report Wrong Elevation
Raw Report
METAR KBNO 152253Z AUTO 22004KT 10SM FEW007 SCT060 M04/M06 A3013 RMK
AO2 SLP239 T10441056=

Extra information for KBNO:More info

Metar Taf Metar & Taf Last 4 Metars F.Rules Stats Wind Profile Meteogram Temp Stats Airport Information Weather charts Add Link Nearby VenuesMetar ALERT Operation Metar Decoded Social comments

AIRNAV info for KBNO